Lt Usodimare — IBPO — position and weather

sailwx.info

Track history (hours):
 
Tides and Currents Weather Stations Pressure Air Temp Water Temp Dewpoint Dewpoint Depression Visibility Wind Speed Wind Dir Waves Ship Positions

Lt Usodimare

Last reported at 2018-Feb-20 02:21 UTC. Time now 2018-Feb-20 04:24 UTC.
Position N 24°13' E 119°18'.

Type: Ship (hazmat cat D). MMSI: 247009600.

Date/timePositionNaut miles runAvg speedWind from/ knotsBaromVisibWave heightAir tempDewpointWater temp
2018-Feb-20 02:21N 24°13' E 119°18'1020.5
2018-Feb-20 01:52N 24°07' E 119°09'820.3
2018-Feb-20 01:28N 24°03' E 119°01'1319.9
2018-Feb-20 00:48N 23°55' E 118°50'1519.7
2018-Feb-20 00:02N 23°47' E 118°36'319.7
2018-Feb-19 23:53N 23°45' E 118°33'919.5
2018-Feb-19 23:25N 23°40' E 118°25'819.3
2018-Feb-19 23:00N 23°35' E 118°18'1018.8
2018-Feb-19 22:30N 23°30' E 118°09'918.6
2018-Feb-19 22:00N 23°25' E 118°01'918.7
2018-Feb-19 21:30N 23°20' E 117°52'918.7
2018-Feb-19 21:00N 23°15' E 117°44'1119.2
2018-Feb-19 20:27N 23°10' E 117°33'819.1
2018-Feb-19 20:00N 23°06' E 117°25'1020.0
2018-Feb-19 19:30N 22°60' E 117°17'1020.6
2018-Feb-19 19:00N 22°54' E 117°07'1121.0
2018-Feb-19 18:29N 22°50' E 116°57'2019.9
2018-Feb-19 17:29N 22°41' E 116°37'917.4
2018-Feb-19 16:59N 22°37' E 116°29'  
2018-Feb-15 17:43N 23°13' E 117°33'414.0
2018-Feb-15 17:24N 23°16' E 117°36'2 5.6
2018-Feb-15 17:00N 23°16' E 117°39'0 0.0
2018-Feb-15 16:23N 23°16' E 117°39'0 0.6
2018-Feb-15 15:47N 23°16' E 117°39'0 0.8
2018-Feb-15 15:23N 23°16' E 117°38'0 1.1
2018-Feb-15 15:00N 23°15' E 117°38'2 1.3
2018-Feb-15 13:38N 23°14' E 117°38'1 1.4
2018-Feb-15 13:16N 23°13' E 117°38'0 1.2
2018-Feb-15 13:00N 23°13' E 117°38'0 1.0
2018-Feb-15 12:30N 23°12' E 117°38'0 0.7
2018-Feb-15 12:00N 23°12' E 117°38'0 0.7
2018-Feb-15 11:29N 23°12' E 117°38'0 0.7
2018-Feb-15 11:00N 23°11' E 117°38'0 0.6
2018-Feb-15 10:30N 23°11' E 117°38'2 3.4
2018-Feb-15 09:49N 23°12' E 117°41'612.4
2018-Feb-15 09:22N 23°15' E 117°46'514.4
2018-Feb-15 09:00N 23°19' E 117°50'714.5
2018-Feb-15 08:30N 23°23' E 117°56'714.5
2018-Feb-15 08:00N 23°27' E 118°03'2613.8
2018-Feb-15 06:08N 23°48' E 118°19'414.5
2018-Feb-15 05:52N 23°52' E 118°20'614.4
2018-Feb-15 05:27N 23°58' E 118°21'614.2
2018-Feb-15 05:00N 24°04' E 118°20'3 6.7
2018-Feb-15 04:30N 24°07' E 118°19'612.1
2018-Feb-15 04:01N 24°13' E 118°17'612.2
2018-Feb-15 03:31N 24°18' E 118°13'612.7
2018-Feb-15 03:01N 24°22' E 118°08'611.5
2018-Feb-15 02:31N 24°26' E 118°03'2 4.6
2018-Feb-15 02:00N 24°27' E 118°00'0 0.1
2018-Feb-15 01:30N 24°27' E 118°00'0 0.0
2018-Feb-15 01:00N 24°27' E 118°00'0 0.0
2018-Feb-15 00:30N 24°27' E 118°00'0 0.0
2018-Feb-15 00:00N 24°27' E 118°00'0 0.0
2018-Feb-14 23:30N 24°27' E 118°00'0 0.0
2018-Feb-14 23:00N 24°27' E 118°00'0 0.0
2018-Feb-14 22:30N 24°27' E 118°00'0 0.0
2018-Feb-14 22:00N 24°27' E 118°00'0 0.1
2018-Feb-14 21:30N 24°27' E 118°00'0 0.0
2018-Feb-14 21:00N 24°27' E 118°00'0 0.0
2018-Feb-14 20:30N 24°27' E 118°00'0 0.2
2018-Feb-14 20:00N 24°27' E 118°00'0 0.2
2018-Feb-14 19:30N 24°27' E 118°00'0 0.0
2018-Feb-14 19:00N 24°27' E 118°00'0 0.0
2018-Feb-14 18:30N 24°27' E 118°00'0 0.0
2018-Feb-14 18:00N 24°27' E 118°00'0 0.0
2018-Feb-14 17:30N 24°27' E 118°00'0 0.0
2018-Feb-14 17:00N 24°27' E 118°00'0 0.0
2018-Feb-14 16:30N 24°27' E 118°00'0 0.0
2018-Feb-14 15:57N 24°27' E 118°00'0 0.0
2018-Feb-14 15:27N 24°27' E 118°00'0 0.0
2018-Feb-14 14:57N 24°27' E 118°00'0 0.0
2018-Feb-14 14:30N 24°27' E 118°00'0 0.0
2018-Feb-14 14:00N 24°27' E 118°00'0 0.0
2018-Feb-14 13:27N 24°27' E 118°00'0 0.0
2018-Feb-14 13:00N 24°27' E 118°00'0 0.0
2018-Feb-14 12:30N 24°27' E 118°00'0 0.0
2018-Feb-14 12:00N 24°27' E 118°00'0 0.0
2018-Feb-14 11:30N 24°27' E 118°00'0 0.0
2018-Feb-14 11:00N 24°27' E 118°00'0 0.0
2018-Feb-14 10:30N 24°27' E 118°00'0 0.0
2018-Feb-14 10:00N 24°27' E 118°00'0 0.0
2018-Feb-14 09:30N 24°27' E 118°00'0 0.0
2018-Feb-14 09:00N 24°27' E 118°00'0 0.0
2018-Feb-14 08:30N 24°27' E 118°00'0 0.1
2018-Feb-14 08:00N 24°27' E 118°00'2 3.9
2018-Feb-14 07:30N 24°26' E 118°02'611.0
2018-Feb-14 07:00N 24°23' E 118°08'611.7
2018-Feb-14 06:30N 24°19' E 118°12'613.0
2018-Feb-14 06:00N 24°14' E 118°16'4 7.9
2018-Feb-14 05:31N 24°14' E 118°21'4 7.9
2018-Feb-14 05:00N 24°17' E 118°24'0 0.4
2018-Feb-14 04:30N 24°17' E 118°24'0 0.1
2018-Feb-14 04:00N 24°17' E 118°24'0 0.1
2018-Feb-14 03:30N 24°17' E 118°24'0 0.1
2018-Feb-14 03:00N 24°17' E 118°24'0 0.3
2018-Feb-14 02:30N 24°17' E 118°24'0 0.1
2018-Feb-14 02:00N 24°17' E 118°24'0 0.1
2018-Feb-14 01:30N 24°17' E 118°24'0 0.0
2018-Feb-14 01:00N 24°17' E 118°24'0 0.0
2018-Feb-14 00:30N 24°17' E 118°24'0 0.0
2018-Feb-14 00:00N 24°17' E 118°24'0 0.0
2018-Feb-13 23:30N 24°17' E 118°24'0 0.0
2018-Feb-13 23:00N 24°17' E 118°24'0 0.0
2018-Feb-13 22:30N 24°17' E 118°24'0 0.0
2018-Feb-13 22:00N 24°17' E 118°24'0 0.1
2018-Feb-13 21:30N 24°17' E 118°24'0 0.2
2018-Feb-13 21:00N 24°17' E 118°24'1 2.7
2018-Feb-13 20:29N 24°17' E 118°26'510.8
2018-Feb-13 20:00N 24°16' E 118°31'612.5
2018-Feb-13 19:30N 24°17' E 118°38'713.5
2018-Feb-13 19:00N 24°19' E 118°45'713.9
2018-Feb-13 18:30N 24°23' E 118°52'9013.3
2018-Feb-13 11:44N 24°57' E 120°23'313.8
2018-Feb-13 11:30N 24°59' E 120°25'813.7
2018-Feb-13 10:55N 25°04' E 120°33'913.9
2018-Feb-13 10:15N 25°08' E 120°42'414.0
2018-Feb-13 10:00N 25°09' E 120°46'714.1
2018-Feb-13 09:30N 25°11' E 120°53'713.8
2018-Feb-13 09:00N 25°13' E 121°00'611.7
2018-Feb-13 08:30N 25°15' E 121°06'611.5
2018-Feb-13 08:00N 25°16' E 121°13'5 9.9
2018-Feb-13 07:31N 25°13' E 121°17'611.2
2018-Feb-13 07:00N 25°09' E 121°22'1 2.3
2018-Feb-13 06:27N 25°10' E 121°23'0 0.0
2018-Feb-13 06:00N 25°10' E 121°23'0 0.0
2018-Feb-13 05:30N 25°10' E 121°23'0 0.0
2018-Feb-13 05:00N 25°10' E 121°23'0 0.0
2018-Feb-13 04:29N 25°10' E 121°23'0 0.0
2018-Feb-13 04:00N 25°10' E 121°23'0 0.1
2018-Feb-13 03:30N 25°10' E 121°23'0 0.1
2018-Feb-13 02:59N 25°10' E 121°23'0 0.1
2018-Feb-13 02:30N 25°10' E 121°23'0 0.1
2018-Feb-13 02:00N 25°10' E 121°23'0 0.0
2018-Feb-13 01:30N 25°10' E 121°23'0 0.0
2018-Feb-13 00:58N 25°10' E 121°23'0 0.0
2018-Feb-13 00:30N 25°10' E 121°23'0 0.0
2018-Feb-12 23:58N 25°10' E 121°23'0 0.0
2018-Feb-12 23:30N 25°10' E 121°23'0 0.1
2018-Feb-12 22:59N 25°10' E 121°23'0 0.0
2018-Feb-12 22:31N 25°10' E 121°23'0 0.0
2018-Feb-12 21:59N 25°10' E 121°23'0 0.1
2018-Feb-12 21:30N 25°10' E 121°23'0 0.0
2018-Feb-12 21:00N 25°10' E 121°23'0 0.0
2018-Feb-12 20:30N 25°10' E 121°23'0 0.0
2018-Feb-12 20:00N 25°10' E 121°23'0 0.0
2018-Feb-12 19:30N 25°10' E 121°23'0 0.0
2018-Feb-12 19:00N 25°10' E 121°23'0 0.0
2018-Feb-12 18:30N 25°10' E 121°23'0 0.1
2018-Feb-12 18:00N 25°10' E 121°23'0 0.0
2018-Feb-12 17:30N 25°10' E 121°23'0 0.1
2018-Feb-12 16:58N 25°10' E 121°23'0 0.1
2018-Feb-12 16:30N 25°10' E 121°23'0 0.1
2018-Feb-12 16:00N 25°10' E 121°23'0 0.0
2018-Feb-12 15:30N 25°10' E 121°23'0 0.0
2018-Feb-12 15:01N 25°10' E 121°23'0 0.0
2018-Feb-12 14:30N 25°10' E 121°23'0 0.0
2018-Feb-12 13:58N 25°10' E 121°23'0 0.0
2018-Feb-12 13:28N 25°10' E 121°23'0 0.1
2018-Feb-12 12:59N 25°10' E 121°23'0 0.1
2018-Feb-12 12:30N 25°10' E 121°23'0 0.0
2018-Feb-12 12:00N 25°10' E 121°23'0 0.6
2018-Feb-12 11:30N 25°09' E 121°23'3 6.1
2018-Feb-12 10:57N 25°10' E 121°19'510.8
2018-Feb-12 10:30N 25°14' E 121°16'510.3
2018-Feb-12 10:00N 25°19' E 121°16'611.7
2018-Feb-12 09:30N 25°25' E 121°18'712.0
2018-Feb-12 08:54N 25°31' E 121°22'  
Track history (hours):
 
Tides and Currents Weather Stations Pressure Air Temp Water Temp Dewpoint Dewpoint Depression Visibility Wind Speed Wind Dir Waves Ship Positions

Lt Usodimare

Last reported at 2018-Feb-20 02:21 UTC. Time now 2018-Feb-20 04:24 UTC.
Position N 24°13' E 119°18'.

Type: Ship (hazmat cat D). MMSI: 247009600.

Date/timePositionNaut miles runAvg speedWind from/ knotsBaromVisibWave heightAir tempDewpointWater temp
2018-Feb-20 02:21N 24°13' E 119°18'1020.5
2018-Feb-20 01:52N 24°07' E 119°09'820.3
2018-Feb-20 01:28N 24°03' E 119°01'1319.9
2018-Feb-20 00:48N 23°55' E 118°50'1519.7
2018-Feb-20 00:02N 23°47' E 118°36'319.7
2018-Feb-19 23:53N 23°45' E 118°33'919.5
2018-Feb-19 23:25N 23°40' E 118°25'819.3
2018-Feb-19 23:00N 23°35' E 118°18'1018.8
2018-Feb-19 22:30N 23°30' E 118°09'918.6
2018-Feb-19 22:00N 23°25' E 118°01'918.7
2018-Feb-19 21:30N 23°20' E 117°52'918.7
2018-Feb-19 21:00N 23°15' E 117°44'1119.2
2018-Feb-19 20:27N 23°10' E 117°33'819.1
2018-Feb-19 20:00N 23°06' E 117°25'1020.0
2018-Feb-19 19:30N 22°60' E 117°17'1020.6
2018-Feb-19 19:00N 22°54' E 117°07'1121.0
2018-Feb-19 18:29N 22°50' E 116°57'2019.9
2018-Feb-19 17:29N 22°41' E 116°37'917.4
2018-Feb-19 16:59N 22°37' E 116°29'  
2018-Feb-15 17:43N 23°13' E 117°33'414.0
2018-Feb-15 17:24N 23°16' E 117°36'2 5.6
2018-Feb-15 17:00N 23°16' E 117°39'0 0.0
2018-Feb-15 16:23N 23°16' E 117°39'0 0.6
2018-Feb-15 15:47N 23°16' E 117°39'0 0.8
2018-Feb-15 15:23N 23°16' E 117°38'0 1.1
2018-Feb-15 15:00N 23°15' E 117°38'2 1.3
2018-Feb-15 13:38N 23°14' E 117°38'1 1.4
2018-Feb-15 13:16N 23°13' E 117°38'0 1.2
2018-Feb-15 13:00N 23°13' E 117°38'0 1.0
2018-Feb-15 12:30N 23°12' E 117°38'0 0.7
2018-Feb-15 12:00N 23°12' E 117°38'0 0.7
2018-Feb-15 11:29N 23°12' E 117°38'0 0.7
2018-Feb-15 11:00N 23°11' E 117°38'0 0.6
2018-Feb-15 10:30N 23°11' E 117°38'2 3.4
2018-Feb-15 09:49N 23°12' E 117°41'612.4
2018-Feb-15 09:22N 23°15' E 117°46'514.4
2018-Feb-15 09:00N 23°19' E 117°50'714.5
2018-Feb-15 08:30N 23°23' E 117°56'714.5
2018-Feb-15 08:00N 23°27' E 118°03'2613.8
2018-Feb-15 06:08N 23°48' E 118°19'414.5
2018-Feb-15 05:52N 23°52' E 118°20'614.4
2018-Feb-15 05:27N 23°58' E 118°21'614.2
2018-Feb-15 05:00N 24°04' E 118°20'3 6.7
2018-Feb-15 04:30N 24°07' E 118°19'612.1
2018-Feb-15 04:01N 24°13' E 118°17'612.2
2018-Feb-15 03:31N 24°18' E 118°13'612.7
2018-Feb-15 03:01N 24°22' E 118°08'611.5
2018-Feb-15 02:31N 24°26' E 118°03'2 4.6
2018-Feb-15 02:00N 24°27' E 118°00'0 0.1
2018-Feb-15 01:30N 24°27' E 118°00'0 0.0
2018-Feb-15 01:00N 24°27' E 118°00'0 0.0
2018-Feb-15 00:30N 24°27' E 118°00'0 0.0
2018-Feb-15 00:00N 24°27' E 118°00'0 0.0
2018-Feb-14 23:30N 24°27' E 118°00'0 0.0
2018-Feb-14 23:00N 24°27' E 118°00'0 0.0
2018-Feb-14 22:30N 24°27' E 118°00'0 0.0
2018-Feb-14 22:00N 24°27' E 118°00'0 0.1
2018-Feb-14 21:30N 24°27' E 118°00'0 0.0
2018-Feb-14 21:00N 24°27' E 118°00'0 0.0
2018-Feb-14 20:30N 24°27' E 118°00'0 0.2
2018-Feb-14 20:00N 24°27' E 118°00'0 0.2
2018-Feb-14 19:30N 24°27' E 118°00'0 0.0
2018-Feb-14 19:00N 24°27' E 118°00'0 0.0
2018-Feb-14 18:30N 24°27' E 118°00'0 0.0
2018-Feb-14 18:00N 24°27' E 118°00'0 0.0
2018-Feb-14 17:30N 24°27' E 118°00'0 0.0
2018-Feb-14 17:00N 24°27' E 118°00'0 0.0
2018-Feb-14 16:30N 24°27' E 118°00'0 0.0
2018-Feb-14 15:57N 24°27' E 118°00'0 0.0
2018-Feb-14 15:27N 24°27' E 118°00'0 0.0
2018-Feb-14 14:57N 24°27' E 118°00'0 0.0
2018-Feb-14 14:30N 24°27' E 118°00'0 0.0
2018-Feb-14 14:00N 24°27' E 118°00'0 0.0
2018-Feb-14 13:27N 24°27' E 118°00'0 0.0
2018-Feb-14 13:00N 24°27' E 118°00'0 0.0
2018-Feb-14 12:30N 24°27' E 118°00'0 0.0
2018-Feb-14 12:00N 24°27' E 118°00'0 0.0
2018-Feb-14 11:30N 24°27' E 118°00'0 0.0
2018-Feb-14 11:00N 24°27' E 118°00'0 0.0
2018-Feb-14 10:30N 24°27' E 118°00'0 0.0
2018-Feb-14 10:00N 24°27' E 118°00'0 0.0
2018-Feb-14 09:30N 24°27' E 118°00'0 0.0
2018-Feb-14 09:00N 24°27' E 118°00'0 0.0
2018-Feb-14 08:30N 24°27' E 118°00'0 0.1
2018-Feb-14 08:00N 24°27' E 118°00'2 3.9
2018-Feb-14 07:30N 24°26' E 118°02'611.0
2018-Feb-14 07:00N 24°23' E 118°08'611.7
2018-Feb-14 06:30N 24°19' E 118°12'613.0
2018-Feb-14 06:00N 24°14' E 118°16'4 7.9
2018-Feb-14 05:31N 24°14' E 118°21'4 7.9
2018-Feb-14 05:00N 24°17' E 118°24'0 0.4
2018-Feb-14 04:30N 24°17' E 118°24'0 0.1
2018-Feb-14 04:00N 24°17' E 118°24'0 0.1
2018-Feb-14 03:30N 24°17' E 118°24'0 0.1
2018-Feb-14 03:00N 24°17' E 118°24'0 0.3
2018-Feb-14 02:30N 24°17' E 118°24'0 0.1
2018-Feb-14 02:00N 24°17' E 118°24'0 0.1
2018-Feb-14 01:30N 24°17' E 118°24'0 0.0
2018-Feb-14 01:00N 24°17' E 118°24'0 0.0
2018-Feb-14 00:30N 24°17' E 118°24'0 0.0
2018-Feb-14 00:00N 24°17' E 118°24'0 0.0
2018-Feb-13 23:30N 24°17' E 118°24'0 0.0
2018-Feb-13 23:00N 24°17' E 118°24'0 0.0
2018-Feb-13 22:30N 24°17' E 118°24'0 0.0
2018-Feb-13 22:00N 24°17' E 118°24'0 0.1
2018-Feb-13 21:30N 24°17' E 118°24'0 0.2
2018-Feb-13 21:00N 24°17' E 118°24'1 2.7
2018-Feb-13 20:29N 24°17' E 118°26'510.8
2018-Feb-13 20:00N 24°16' E 118°31'612.5
2018-Feb-13 19:30N 24°17' E 118°38'713.5
2018-Feb-13 19:00N 24°19' E 118°45'713.9
2018-Feb-13 18:30N 24°23' E 118°52'9013.3
2018-Feb-13 11:44N 24°57' E 120°23'313.8
2018-Feb-13 11:30N 24°59' E 120°25'813.7
2018-Feb-13 10:55N 25°04' E 120°33'913.9
2018-Feb-13 10:15N 25°08' E 120°42'414.0
2018-Feb-13 10:00N 25°09' E 120°46'714.1
2018-Feb-13 09:30N 25°11' E 120°53'713.8
2018-Feb-13 09:00N 25°13' E 121°00'611.7
2018-Feb-13 08:30N 25°15' E 121°06'611.5
2018-Feb-13 08:00N 25°16' E 121°13'5 9.9
2018-Feb-13 07:31N 25°13' E 121°17'611.2
2018-Feb-13 07:00N 25°09' E 121°22'1 2.3
2018-Feb-13 06:27N 25°10' E 121°23'0 0.0
2018-Feb-13 06:00N 25°10' E 121°23'0 0.0
2018-Feb-13 05:30N 25°10' E 121°23'0 0.0
2018-Feb-13 05:00N 25°10' E 121°23'0 0.0
2018-Feb-13 04:29N 25°10' E 121°23'0 0.0
2018-Feb-13 04:00N 25°10' E 121°23'0 0.1
2018-Feb-13 03:30N 25°10' E 121°23'0 0.1
2018-Feb-13 02:59N 25°10' E 121°23'0 0.1
2018-Feb-13 02:30N 25°10' E 121°23'0 0.1
2018-Feb-13 02:00N 25°10' E 121°23'0 0.0
2018-Feb-13 01:30N 25°10' E 121°23'0 0.0
2018-Feb-13 00:58N 25°10' E 121°23'0 0.0
2018-Feb-13 00:30N 25°10' E 121°23'0 0.0
2018-Feb-12 23:58N 25°10' E 121°23'0 0.0
2018-Feb-12 23:30N 25°10' E 121°23'0 0.1
2018-Feb-12 22:59N 25°10' E 121°23'0 0.0
2018-Feb-12 22:31N 25°10' E 121°23'0 0.0
2018-Feb-12 21:59N 25°10' E 121°23'0 0.1
2018-Feb-12 21:30N 25°10' E 121°23'0 0.0
2018-Feb-12 21:00N 25°10' E 121°23'0 0.0
2018-Feb-12 20:30N 25°10' E 121°23'0 0.0
2018-Feb-12 20:00N 25°10' E 121°23'0 0.0
2018-Feb-12 19:30N 25°10' E 121°23'0 0.0
2018-Feb-12 19:00N 25°10' E 121°23'0 0.0
2018-Feb-12 18:30N 25°10' E 121°23'0 0.1
2018-Feb-12 18:00N 25°10' E 121°23'0 0.0
2018-Feb-12 17:30N 25°10' E 121°23'0 0.1
2018-Feb-12 16:58N 25°10' E 121°23'0 0.1
2018-Feb-12 16:30N 25°10' E 121°23'0 0.1
2018-Feb-12 16:00N 25°10' E 121°23'0 0.0
2018-Feb-12 15:30N 25°10' E 121°23'0 0.0
2018-Feb-12 15:01N 25°10' E 121°23'0 0.0
2018-Feb-12 14:30N 25°10' E 121°23'0 0.0
2018-Feb-12 13:58N 25°10' E 121°23'0 0.0
2018-Feb-12 13:28N 25°10' E 121°23'0 0.1
2018-Feb-12 12:59N 25°10' E 121°23'0 0.1
2018-Feb-12 12:30N 25°10' E 121°23'0 0.0
2018-Feb-12 12:00N 25°10' E 121°23'0 0.6
2018-Feb-12 11:30N 25°09' E 121°23'3 6.1
2018-Feb-12 10:57N 25°10' E 121°19'510.8
2018-Feb-12 10:30N 25°14' E 121°16'510.3
2018-Feb-12 10:00N 25°19' E 121°16'611.7
2018-Feb-12 09:30N 25°25' E 121°18'712.0
2018-Feb-12 08:54N 25°31' E 121°22'  

Dump ship's entire track history